createdAt,value
2018-01-30T00:01:55.095Z,6.60
2018-01-30T00:04:22.838Z,6.70
2018-01-30T00:06:50.820Z,6.70
2018-01-30T00:09:18.539Z,6.70
2018-01-30T00:11:46.261Z,6.50
2018-01-30T00:14:13.973Z,6.40
2018-01-30T00:16:41.748Z,6.40
2018-01-30T00:19:09.426Z,6.40
2018-01-30T00:21:37.194Z,6.40
2018-01-30T00:24:04.974Z,6.50
2018-01-30T00:26:32.879Z,6.50
2018-01-30T00:29:00.567Z,6.50
2018-01-30T00:31:28.231Z,6.40
2018-01-30T00:33:55.873Z,6.40
2018-01-30T00:36:23.607Z,6.40
2018-01-30T00:38:51.377Z,6.40
2018-01-30T00:41:19.088Z,6.40
2018-01-30T00:43:47.672Z,6.40
2018-01-30T00:46:15.344Z,6.40
2018-01-30T00:48:43.840Z,6.50
2018-01-30T00:51:11.668Z,6.50
2018-01-30T00:53:39.390Z,6.50
2018-01-30T00:56:07.111Z,6.50
2018-01-30T00:58:34.763Z,6.50
2018-01-30T01:01:02.460Z,6.60
2018-01-30T01:03:30.528Z,6.60
2018-01-30T01:05:58.295Z,6.60
2018-01-30T01:08:25.985Z,6.70
2018-01-30T01:10:53.685Z,6.60
2018-01-30T01:13:21.357Z,6.70
2018-01-30T01:15:49.055Z,6.70
2018-01-30T01:18:16.755Z,6.70
2018-01-30T01:20:44.370Z,6.70
2018-01-30T01:23:12.123Z,6.70
2018-01-30T01:25:41.067Z,6.70
2018-01-30T01:28:09.807Z,6.70
2018-01-30T01:30:37.450Z,6.80
2018-01-30T01:33:05.155Z,6.80
2018-01-30T01:35:32.863Z,6.80
2018-01-30T01:38:00.999Z,6.70
2018-01-30T01:40:28.721Z,6.70
2018-01-30T01:42:56.341Z,6.40
2018-01-30T01:45:24.091Z,6.30
2018-01-30T01:47:51.790Z,6.30
2018-01-30T01:50:19.470Z,6.30
2018-01-30T01:52:47.192Z,6.40
2018-01-30T01:55:15.332Z,6.30
2018-01-30T01:57:42.983Z,6.30
2018-01-30T02:00:10.714Z,6.40
2018-01-30T02:02:38.452Z,6.50
2018-01-30T02:05:06.567Z,6.60
2018-01-30T02:07:34.238Z,6.60
2018-01-30T02:10:01.967Z,6.60
2018-01-30T02:12:29.702Z,6.60
2018-01-30T02:14:57.887Z,6.60
2018-01-30T02:17:25.670Z,6.50
2018-01-30T02:19:53.790Z,6.30
2018-01-30T02:22:21.451Z,6.30
2018-01-30T02:24:49.159Z,6.30
2018-01-30T02:27:17.108Z,6.40
2018-01-30T02:29:44.854Z,6.40
2018-01-30T02:32:12.569Z,6.40
2018-01-30T02:34:40.426Z,6.50
2018-01-30T02:37:08.112Z,6.50
2018-01-30T02:39:35.817Z,6.40
2018-01-30T02:42:03.472Z,6.30
2018-01-30T02:44:31.171Z,6.20
2018-01-30T02:46:58.830Z,6.20
2018-01-30T02:49:26.865Z,6.00
2018-01-30T02:51:54.491Z,6.00
2018-01-30T02:54:22.155Z,6.10
2018-01-30T02:56:49.827Z,6.20
2018-01-30T02:59:19.545Z,6.20
2018-01-30T03:01:47.281Z,6.30
2018-01-30T03:04:15.743Z,6.30
2018-01-30T03:06:44.290Z,6.40
2018-01-30T03:09:12.047Z,6.40
2018-01-30T03:11:39.727Z,6.40
2018-01-30T03:14:07.434Z,6.50
2018-01-30T03:16:35.357Z,6.50
2018-01-30T03:19:03.055Z,6.50
2018-01-30T03:21:30.745Z,6.50
2018-01-30T03:23:58.507Z,6.50
2018-01-30T03:26:26.161Z,6.50
2018-01-30T03:28:53.942Z,6.60
2018-01-30T03:31:21.648Z,6.60
2018-01-30T03:33:49.699Z,6.60
2018-01-30T03:36:17.378Z,6.60
2018-01-30T03:38:45.104Z,6.60
2018-01-30T03:41:13.047Z,6.50
2018-01-30T03:43:40.729Z,6.50
2018-01-30T03:46:08.472Z,6.40
2018-01-30T03:48:36.153Z,6.40
2018-01-30T03:51:03.892Z,6.40
2018-01-30T03:53:31.651Z,6.40
2018-01-30T03:55:59.370Z,6.40
2018-01-30T03:58:27.108Z,6.40
2018-01-30T04:00:54.812Z,6.40
2018-01-30T04:03:22.413Z,6.40
2018-01-30T04:05:50.043Z,6.40
2018-01-30T04:08:17.718Z,6.50
2018-01-30T04:10:45.442Z,6.50
2018-01-30T04:13:13.510Z,6.40
2018-01-30T04:15:41.175Z,6.40
2018-01-30T04:18:08.815Z,6.30
2018-01-30T04:20:36.515Z,6.40
2018-01-30T04:23:05.018Z,6.40
2018-01-30T04:25:32.676Z,6.50
2018-01-30T04:28:00.453Z,6.50
2018-01-30T04:30:28.229Z,6.50
2018-01-30T04:32:55.971Z,6.50
2018-01-30T04:35:23.646Z,6.50
2018-01-30T04:37:51.279Z,6.50
2018-01-30T04:40:18.937Z,6.50
2018-01-30T04:42:46.735Z,6.50
2018-01-30T04:45:15.695Z,6.40
2018-01-30T04:47:43.469Z,6.30
2018-01-30T04:50:11.173Z,6.40
2018-01-30T04:52:39.435Z,6.40
2018-01-30T04:55:07.197Z,6.40
2018-01-30T04:57:34.902Z,6.30
2018-01-30T05:00:02.555Z,6.20
2018-01-30T05:02:30.163Z,6.20
2018-01-30T05:04:58.571Z,6.20
2018-01-30T05:07:26.670Z,6.20
2018-01-30T05:09:54.272Z,6.20
2018-01-30T05:12:22.002Z,6.20
2018-01-30T05:14:49.730Z,6.20
2018-01-30T05:17:17.852Z,6.20
2018-01-30T05:19:45.482Z,6.20
2018-01-30T05:22:13.157Z,6.20
2018-01-30T05:24:40.846Z,6.30
2018-01-30T05:27:08.532Z,6.30
2018-01-30T05:29:36.267Z,6.30
2018-01-30T05:32:03.995Z,6.30
2018-01-30T05:34:31.571Z,6.30
2018-01-30T05:36:59.232Z,6.30
2018-01-30T05:39:27.770Z,6.30
2018-01-30T05:41:55.868Z,6.30
2018-01-30T05:44:23.693Z,6.30
2018-01-30T05:46:51.319Z,6.30
2018-01-30T05:49:20.145Z,6.30
2018-01-30T05:51:47.775Z,6.40
2018-01-30T05:54:15.360Z,6.40
2018-01-30T05:56:42.999Z,6.40
2018-01-30T05:59:10.611Z,6.50
2018-01-30T06:01:38.850Z,6.50
2018-01-30T06:04:06.528Z,6.40
2018-01-30T06:06:34.210Z,6.50
2018-01-30T06:09:01.971Z,6.50
2018-01-30T06:11:30.355Z,6.40
2018-01-30T06:13:57.979Z,6.30
2018-01-30T06:16:25.602Z,6.30
2018-01-30T06:18:53.207Z,6.40
2018-01-30T06:21:22.095Z,6.50
2018-01-30T06:23:50.224Z,6.40
2018-01-30T06:26:18.980Z,6.40
2018-01-30T06:28:46.747Z,6.40
2018-01-30T06:31:14.415Z,6.40
2018-01-30T06:33:42.126Z,6.40
2018-01-30T06:36:09.795Z,6.30
2018-01-30T06:38:38.664Z,6.30
2018-01-30T06:41:06.353Z,6.40
2018-01-30T06:43:33.983Z,6.40
2018-01-30T06:46:01.642Z,6.30
2018-01-30T06:48:29.433Z,6.40
2018-01-30T06:50:57.199Z,6.40
2018-01-30T06:53:24.778Z,6.50
2018-01-30T06:55:52.378Z,6.50
2018-01-30T06:58:20.095Z,6.50
2018-01-30T07:00:47.739Z,6.50
2018-01-30T07:03:16.072Z,6.40
2018-01-30T07:05:43.756Z,6.40
2018-01-30T07:08:11.350Z,6.40
2018-01-30T07:10:38.906Z,6.50
2018-01-30T07:13:06.695Z,6.50
2018-01-30T07:15:34.320Z,6.50
2018-01-30T07:18:06.899Z,6.50
2018-01-30T07:20:34.586Z,6.50
2018-01-30T07:23:02.915Z,6.50
2018-01-30T07:25:30.558Z,6.50
2018-01-30T07:27:58.189Z,6.50
2018-01-30T07:30:25.806Z,6.50
2018-01-30T07:32:53.404Z,6.50
2018-01-30T07:35:21.013Z,6.50
2018-01-30T07:37:48.561Z,6.50
2018-01-30T07:40:16.147Z,6.50
2018-01-30T07:42:43.692Z,6.50
2018-01-30T07:45:11.433Z,6.60
2018-01-30T07:47:39.032Z,6.70
2018-01-30T07:50:06.975Z,6.80
2018-01-30T07:52:35.538Z,6.90
2018-01-30T07:55:03.187Z,6.90
2018-01-30T07:57:30.743Z,6.90
2018-01-30T07:59:58.301Z,7.00
2018-01-30T08:02:25.952Z,7.00
2018-01-30T08:04:53.649Z,7.00
2018-01-30T08:07:21.312Z,7.20
2018-01-30T08:09:49.986Z,7.20
2018-01-30T08:12:17.755Z,7.40
2018-01-30T08:14:45.464Z,7.60
2018-01-30T08:17:13.096Z,7.50
2018-01-30T08:19:40.767Z,7.40
2018-01-30T08:22:08.518Z,7.40
2018-01-30T08:24:36.170Z,7.30
2018-01-30T08:27:03.867Z,7.20
2018-01-30T08:29:32.217Z,7.10
2018-01-30T08:31:59.792Z,7.10
2018-01-30T08:34:28.243Z,7.20
2018-01-30T08:36:55.802Z,7.40
2018-01-30T08:39:23.428Z,7.40
2018-01-30T08:41:51.014Z,7.40
2018-01-30T08:44:18.583Z,7.50
2018-01-30T08:46:46.928Z,7.40
2018-01-30T08:49:14.779Z,7.30
2018-01-30T08:51:42.334Z,7.20
2018-01-30T08:54:09.930Z,7.30
2018-01-30T08:56:37.542Z,7.40
2018-01-30T08:59:05.546Z,7.30
2018-01-30T09:01:33.091Z,7.30
2018-01-30T09:04:00.642Z,7.40
2018-01-30T09:06:28.245Z,7.50
2018-01-30T09:08:56.811Z,7.60
2018-01-30T09:11:24.432Z,7.60
2018-01-30T09:13:52.357Z,7.30
2018-01-30T09:16:19.938Z,7.30
2018-01-30T09:18:47.556Z,7.50
2018-01-30T09:21:15.126Z,7.60
2018-01-30T09:23:42.720Z,7.60
2018-01-30T09:26:10.275Z,7.60
2018-01-30T09:28:38.299Z,7.50
2018-01-30T09:31:06.010Z,7.50
2018-01-30T09:33:34.752Z,7.60
2018-01-30T09:36:02.354Z,7.60
2018-01-30T09:38:30.365Z,7.60
2018-01-30T09:40:58.017Z,7.70
2018-01-30T09:43:25.664Z,7.90
2018-01-30T09:45:53.660Z,8.00
2018-01-30T09:48:21.248Z,8.00
2018-01-30T09:50:48.804Z,8.10
2018-01-30T09:53:16.418Z,8.20
2018-01-30T09:55:44.076Z,8.10
2018-01-30T09:58:11.653Z,8.10
2018-01-30T10:00:39.208Z,8.20
2018-01-30T10:03:06.764Z,8.30
2018-01-30T10:05:34.404Z,8.20
2018-01-30T10:08:02.086Z,8.20
2018-01-30T10:10:29.727Z,8.40
2018-01-30T10:12:57.349Z,8.40
2018-01-30T10:15:24.933Z,8.40
2018-01-30T10:17:52.544Z,8.50
2018-01-30T10:20:20.145Z,8.60
2018-01-30T10:22:47.802Z,8.70
2018-01-30T10:25:15.451Z,8.60
2018-01-30T10:27:43.078Z,8.50
2018-01-30T10:30:11.668Z,8.50
2018-01-30T10:32:39.291Z,8.40
2018-01-30T10:35:07.029Z,8.40
2018-01-30T10:37:34.645Z,8.60
2018-01-30T10:40:02.286Z,8.50
2018-01-30T10:42:29.949Z,8.40
2018-01-30T10:44:57.555Z,8.30
2018-01-30T10:47:25.193Z,8.30
2018-01-30T10:49:52.922Z,8.40
2018-01-30T10:52:20.372Z,8.40
2018-01-30T10:54:48.031Z,8.40
2018-01-30T10:57:15.618Z,8.40
2018-01-30T10:59:44.244Z,8.50
2018-01-30T11:02:12.263Z,8.70
2018-01-30T11:04:39.823Z,8.70
2018-01-30T11:07:07.488Z,8.70
2018-01-30T11:09:35.054Z,8.70
2018-01-30T11:12:02.718Z,8.80
2018-01-30T11:14:30.429Z,8.90
2018-01-30T11:16:58.455Z,9.00
2018-01-30T11:19:26.023Z,9.00
2018-01-30T11:21:53.743Z,9.00
2018-01-30T11:24:21.320Z,8.90
2018-01-30T11:26:48.840Z,8.90
2018-01-30T11:29:16.869Z,8.80
2018-01-30T11:31:44.479Z,8.80
2018-01-30T11:34:12.096Z,8.80
2018-01-30T11:36:39.703Z,9.00
2018-01-30T11:39:07.397Z,9.10
2018-01-30T11:41:35.018Z,9.10
2018-01-30T11:44:02.719Z,9.00
2018-01-30T11:46:30.387Z,9.10
2018-01-30T11:48:57.984Z,9.10
2018-01-30T11:51:25.642Z,9.10
2018-01-30T11:53:53.648Z,9.30
2018-01-30T11:56:21.235Z,9.30
2018-01-30T11:58:48.924Z,9.20
2018-01-30T12:01:16.919Z,9.00
2018-01-30T12:03:44.537Z,9.00
2018-01-30T12:06:12.824Z,8.90
2018-01-30T12:08:40.843Z,8.80
2018-01-30T12:11:08.412Z,8.90
2018-01-30T12:13:36.051Z,8.90
2018-01-30T12:16:03.599Z,9.00
2018-01-30T12:18:31.138Z,9.00
2018-01-30T12:20:59.103Z,9.00
2018-01-30T12:23:27.048Z,9.10
2018-01-30T12:25:54.656Z,9.10
2018-01-30T12:28:22.255Z,9.00
2018-01-30T12:30:49.869Z,9.00
2018-01-30T12:33:17.498Z,9.10
2018-01-30T12:35:45.088Z,9.20
2018-01-30T12:38:14.770Z,9.30
2018-01-30T12:40:42.711Z,9.40
2018-01-30T12:43:10.310Z,9.50
2018-01-30T12:45:37.916Z,9.50
2018-01-30T12:48:05.530Z,9.60
2018-01-30T12:50:33.075Z,9.70
2018-01-30T12:53:00.638Z,9.90
2018-01-30T12:55:28.223Z,10.00
2018-01-30T12:57:56.761Z,10.10
2018-01-30T13:00:24.369Z,10.10
2018-01-30T13:02:51.946Z,10.20
2018-01-30T13:05:19.564Z,10.10
2018-01-30T13:07:47.479Z,10.10
2018-01-30T13:10:16.143Z,10.10
2018-01-30T13:12:43.754Z,9.90
2018-01-30T13:15:11.285Z,9.80
2018-01-30T13:17:38.798Z,9.80
2018-01-30T13:20:06.375Z,9.80
2018-01-30T13:22:33.999Z,9.80
2018-01-30T13:25:01.926Z,9.80
2018-01-30T13:27:29.497Z,9.80
2018-01-30T13:29:57.101Z,9.70
2018-01-30T13:32:24.637Z,9.60
2018-01-30T13:34:52.204Z,9.60
2018-01-30T13:37:21.230Z,9.70
2018-01-30T13:39:48.804Z,9.70
2018-01-30T13:42:16.450Z,9.70
2018-01-30T13:44:43.973Z,9.60
2018-01-30T13:47:11.919Z,9.60
2018-01-30T13:49:39.453Z,9.60
2018-01-30T13:52:07.055Z,9.50
2018-01-30T13:54:35.000Z,9.60
2018-01-30T13:57:02.603Z,9.60
2018-01-30T13:59:30.240Z,9.50
2018-01-30T14:01:57.763Z,9.50
2018-01-30T14:04:25.315Z,9.50
2018-01-30T14:06:52.915Z,9.50
2018-01-30T14:09:20.468Z,9.50
2018-01-30T14:11:48.003Z,9.60
2018-01-30T14:14:15.549Z,9.60
2018-01-30T14:16:43.155Z,9.50
2018-01-30T14:19:10.686Z,9.50
2018-01-30T14:21:38.288Z,9.50
2018-01-30T14:24:05.831Z,9.50
2018-01-30T14:26:33.815Z,9.50
2018-01-30T14:29:01.467Z,9.40
2018-01-30T14:31:29.065Z,9.50
2018-01-30T14:33:56.619Z,9.40
2018-01-30T14:36:24.152Z,9.40
2018-01-30T14:38:51.727Z,9.40
2018-01-30T14:41:19.357Z,9.40
2018-01-30T14:43:46.923Z,9.30
2018-01-30T14:46:14.515Z,9.30
2018-01-30T14:48:42.073Z,9.40
2018-01-30T14:51:09.713Z,9.40
2018-01-30T14:53:37.288Z,9.40
2018-01-30T14:56:04.869Z,9.40
2018-01-30T14:58:32.478Z,9.30
2018-01-30T15:01:00.073Z,9.40
2018-01-30T15:03:27.631Z,9.30
2018-01-30T15:05:55.266Z,9.30
2018-01-30T15:08:22.847Z,9.40
2018-01-30T15:10:50.402Z,9.30
2018-01-30T15:13:18.018Z,9.40
2018-01-30T15:15:45.982Z,9.40
2018-01-30T15:18:13.600Z,9.40
2018-01-30T15:20:41.143Z,9.40
2018-01-30T15:23:08.666Z,9.40
2018-01-30T15:25:36.231Z,9.40
2018-01-30T15:28:03.806Z,9.40
2018-01-30T15:30:31.403Z,9.40
2018-01-30T15:32:58.962Z,9.40
2018-01-30T15:35:27.400Z,9.40
2018-01-30T15:37:55.013Z,9.40
2018-01-30T15:40:22.555Z,9.40
2018-01-30T15:42:50.150Z,9.30
2018-01-30T15:45:18.155Z,9.30
2018-01-30T15:47:45.699Z,9.30
2018-01-30T15:50:13.273Z,9.30
2018-01-30T15:52:40.852Z,9.30
2018-01-30T15:55:08.375Z,9.30
2018-01-30T15:57:35.927Z,9.30
2018-01-30T16:00:03.479Z,9.20
2018-01-30T16:02:31.465Z,9.10
2018-01-30T16:04:59.075Z,9.10
2018-01-30T16:07:26.870Z,9.10
2018-01-30T16:09:54.527Z,9.10
2018-01-30T16:12:22.567Z,9.10
2018-01-30T16:14:50.200Z,9.10
2018-01-30T16:17:17.789Z,9.00
2018-01-30T16:19:45.911Z,9.10
2018-01-30T16:22:13.504Z,9.10
2018-01-30T16:24:41.195Z,9.00
2018-01-30T16:27:08.914Z,9.00
2018-01-30T16:29:36.548Z,9.00
2018-01-30T16:32:04.175Z,9.00
2018-01-30T16:34:32.220Z,9.00
2018-01-30T16:36:59.839Z,9.00
2018-01-30T16:39:27.442Z,9.00
2018-01-30T16:41:55.064Z,9.00
2018-01-30T16:44:22.697Z,8.90
2018-01-30T16:46:50.253Z,8.90
2018-01-30T16:49:17.943Z,8.80
2018-01-30T16:51:45.536Z,8.80
2018-01-30T16:54:13.151Z,8.80
2018-01-30T16:56:40.748Z,8.80
2018-01-30T16:59:08.409Z,8.80
2018-01-30T17:01:35.939Z,8.70
2018-01-30T17:04:03.639Z,8.70
2018-01-30T17:06:31.338Z,8.70
2018-01-30T17:08:58.999Z,8.70
2018-01-30T17:11:27.058Z,8.70
2018-01-30T17:13:54.996Z,8.70
2018-01-30T17:16:22.605Z,8.70
2018-01-30T17:18:50.215Z,8.60
2018-01-30T17:21:18.286Z,8.60
2018-01-30T17:23:45.990Z,8.60
2018-01-30T17:26:13.708Z,8.60
2018-01-30T17:28:41.448Z,8.60
2018-01-30T17:31:09.045Z,8.60
2018-01-30T17:33:36.764Z,8.60
2018-01-30T17:36:04.353Z,8.50
2018-01-30T17:38:31.944Z,8.50
2018-01-30T17:41:00.587Z,8.50
2018-01-30T17:43:28.130Z,8.50
2018-01-30T17:45:55.705Z,8.50
2018-01-30T17:48:23.287Z,8.50
2018-01-30T17:50:50.917Z,8.50
2018-01-30T17:53:18.468Z,8.50
2018-01-30T17:55:46.139Z,8.50
2018-01-30T17:58:13.826Z,8.50
2018-01-30T18:00:42.025Z,8.50
2018-01-30T18:03:12.313Z,8.50
2018-01-30T18:05:39.985Z,8.50
2018-01-30T18:08:08.104Z,8.50
2018-01-30T18:10:35.808Z,8.50
2018-01-30T18:13:03.558Z,8.50
2018-01-30T18:15:32.148Z,8.50
2018-01-30T18:18:00.259Z,8.50
2018-01-30T18:20:27.931Z,8.50
2018-01-30T18:22:55.488Z,8.40
2018-01-30T18:25:23.142Z,8.40
2018-01-30T18:27:50.726Z,8.40
2018-01-30T18:30:18.407Z,8.40
2018-01-30T18:32:46.280Z,8.40
2018-01-30T18:35:14.043Z,8.50
2018-01-30T18:37:42.540Z,8.50
2018-01-30T18:40:10.132Z,8.40
2018-01-30T18:42:38.135Z,8.40
2018-01-30T18:45:05.801Z,8.40
2018-01-30T18:47:33.468Z,8.40
2018-01-30T18:50:01.061Z,8.40
2018-01-30T18:52:28.714Z,8.40
2018-01-30T18:54:57.241Z,8.40
2018-01-30T18:57:25.035Z,8.30
2018-01-30T18:59:53.772Z,8.40
2018-01-30T19:02:21.504Z,8.30
2018-01-30T19:04:49.491Z,8.30
2018-01-30T19:07:17.131Z,8.30
2018-01-30T19:09:44.835Z,8.30
2018-01-30T19:12:12.560Z,8.30
2018-01-30T19:14:40.221Z,8.30
2018-01-30T19:17:11.518Z,8.30
2018-01-30T19:19:39.192Z,8.20
2018-01-30T19:22:06.753Z,8.30
2018-01-30T19:24:34.371Z,8.30
2018-01-30T19:27:02.053Z,8.30
2018-01-30T19:29:29.702Z,8.30
2018-01-30T19:31:57.312Z,8.30
2018-01-30T19:34:24.954Z,8.20
2018-01-30T19:36:52.583Z,8.20
2018-01-30T19:39:20.255Z,8.20
2018-01-30T19:41:47.882Z,8.20
2018-01-30T19:44:15.865Z,8.20
2018-01-30T19:46:43.421Z,8.20
2018-01-30T19:49:11.014Z,8.20
2018-01-30T19:51:38.612Z,8.20
2018-01-30T19:54:06.714Z,8.20
2018-01-30T19:56:34.402Z,8.20
2018-01-30T19:59:02.025Z,8.20
2018-01-30T20:01:29.560Z,8.10
2018-01-30T20:03:57.170Z,8.10
2018-01-30T20:06:24.849Z,8.10
2018-01-30T20:08:52.541Z,8.10
2018-01-30T20:11:20.248Z,8.10
2018-01-30T20:13:47.915Z,8.10
2018-01-30T20:16:15.611Z,8.10
2018-01-30T20:18:43.158Z,8.10
2018-01-30T20:21:10.692Z,8.10
2018-01-30T20:23:38.419Z,8.10
2018-01-30T20:26:06.247Z,8.10
2018-01-30T20:28:33.925Z,8.00
2018-01-30T20:31:01.596Z,8.00
2018-01-30T20:33:29.663Z,8.00
2018-01-30T20:35:57.290Z,8.00
2018-01-30T20:38:25.001Z,8.00
2018-01-30T20:40:52.615Z,8.00
2018-01-30T20:43:20.207Z,8.00
2018-01-30T20:45:48.234Z,8.00
2018-01-30T20:48:17.087Z,8.00
2018-01-30T20:50:44.777Z,7.90
2018-01-30T20:53:12.413Z,8.00
2018-01-30T20:55:40.034Z,8.00
2018-01-30T20:58:08.071Z,8.00
2018-01-30T21:00:35.784Z,8.00
2018-01-30T21:03:03.817Z,8.00
2018-01-30T21:05:31.409Z,8.00
2018-01-30T21:07:58.994Z,7.90
2018-01-30T21:10:26.937Z,7.90
2018-01-30T21:12:54.962Z,8.00
2018-01-30T21:15:22.548Z,8.00
2018-01-30T21:17:50.163Z,8.00
2018-01-30T21:20:17.816Z,8.00
2018-01-30T21:22:45.476Z,8.00
2018-01-30T21:25:13.147Z,8.00
2018-01-30T21:27:40.813Z,8.00
2018-01-30T21:30:08.615Z,8.00
2018-01-30T21:32:36.298Z,8.00
2018-01-30T21:35:03.830Z,8.00
2018-01-30T21:37:31.518Z,8.00
2018-01-30T21:39:59.552Z,8.10
2018-01-30T21:42:27.198Z,8.10
2018-01-30T21:44:55.762Z,8.00
2018-01-30T21:47:23.352Z,8.10
2018-01-30T21:49:50.974Z,8.00
2018-01-30T21:52:18.612Z,8.00
2018-01-30T21:54:46.289Z,8.00
2018-01-30T21:57:13.968Z,8.00
2018-01-30T21:59:41.545Z,8.00
2018-01-30T22:02:09.197Z,8.00
2018-01-30T22:04:36.832Z,7.90
2018-01-30T22:07:04.449Z,7.90
2018-01-30T22:09:32.501Z,7.90
2018-01-30T22:12:00.144Z,7.90
2018-01-30T22:14:27.970Z,7.90
2018-01-30T22:16:55.584Z,7.90
2018-01-30T22:19:23.244Z,7.90
2018-01-30T22:21:50.977Z,7.90
2018-01-30T22:24:18.597Z,7.90
2018-01-30T22:26:46.261Z,7.90
2018-01-30T22:29:13.945Z,7.90
2018-01-30T22:31:41.491Z,7.90
2018-01-30T22:34:09.130Z,7.80
2018-01-30T22:36:42.609Z,7.80
2018-01-30T22:39:10.209Z,7.70
2018-01-30T22:41:37.829Z,7.70
2018-01-30T22:44:05.467Z,7.70
2018-01-30T22:46:33.067Z,7.70
